GMMX

Details ICAO GMMX (RAK)
Name MENARA
Region Morocco
Timezone Africa/Casablanca (UTC+1.0)
Plans Departing 324
Arriving 418
Stats Elevation 1,545 ft / 471 m (AMSL)
Location 31.606920° -8.036265°
Runways 1
Magnetic Variation 1.941° W
Sunrise 2018-06-24 05:29:31 UTC / 2018-06-24 06:29:31 Local
Sunset 2018-06-24 19:42:01 UTC / 2018-06-24 20:42:01 Local
Advertisement - Login to hide

Runways

ID Width Length Bearing (true) Bearing (mag) Surface Threshold Offset Overrun Length
10 148 ft / 45 m 10,169 ft / 3,100 m 95.99° 97.93° Asphalt 918 ft / 280 m 0 ft / 0 m
28 148 ft / 45 m 10,169 ft / 3,100 m 276.00° 277.94° Asphalt 0 ft / 0 m 0 ft / 0 m

Approach Navaids

Runway Type Ident Frequency Range Bearing (true) Bearing (mag) Slope Elevation
10 Localiser MAR 109.70 MHz 18 nm / 33 km 96.03° 97.97° - 1,545 ft / 471 m (AMSL)
10 Glidescope MAR 109.70 MHz 10 nm / 19 km 96.00° 97.94° 3.00° 1,558 ft / 475 m (AMSL)

Map

Weather


0- 5 10 15 20 25 30 35+ Temperature / ° C

Clouds and Precipitation
Forecast for 2018-06-24 00:00 UTC. Updated 4 hours ago

Ground ~20,000 ft ~40,000 ft Winds

METAR

GMMX 240130Z 23008KT CAVOK 19/14 Q1015 NOSIG

TAF

TAF GMMX 232300Z 2400/2506 24005KT CAVOK TEMPO 2415/2420 32015KT SCT026

Frequencies

Tower 118.70 MHz MARRAKECH TWR
Approach 119.70 MHz MARRAKECH APP
Warning: Do not use this data for real-world aviation or navigation. No guarantee of current accuracy is given.